sensor_id;sensor_type;location;lat;lon;timestamp;P1;durP1;ratioP1;P2;durP2;ratioP2
41343;SDS011;27089;50.022;7.604;2023-03-01T00:02:05;13.67;;;7.90;;
41343;SDS011;27089;50.022;7.604;2023-03-01T00:04:33;12.13;;;8.80;;
41343;SDS011;27089;50.022;7.604;2023-03-01T00:07:00;11.57;;;7.47;;
41343;SDS011;27089;50.022;7.604;2023-03-01T00:09:27;10.60;;;7.80;;
41343;SDS011;27089;50.022;7.604;2023-03-01T00:11:54;13.53;;;8.27;;
41343;SDS011;27089;50.022;7.604;2023-03-01T00:14:21;12.77;;;8.87;;
41343;SDS011;27089;50.022;7.604;2023-03-01T00:16:48;13.33;;;9.07;;
41343;SDS011;27089;50.022;7.604;2023-03-01T00:19:16;12.47;;;8.60;;
41343;SDS011;27089;50.022;7.604;2023-03-01T00:21:45;12.13;;;8.83;;
41343;SDS011;27089;50.022;7.604;2023-03-01T00:24:12;13.40;;;8.90;;
41343;SDS011;27089;50.022;7.604;2023-03-01T00:26:39;13.73;;;8.97;;
41343;SDS011;27089;50.022;7.604;2023-03-01T00:29:06;12.43;;;8.73;;
41343;SDS011;27089;50.022;7.604;2023-03-01T00:31:33;13.17;;;8.73;;
41343;SDS011;27089;50.022;7.604;2023-03-01T00:34:01;13.57;;;9.03;;
41343;SDS011;27089;50.022;7.604;2023-03-01T00:36:30;15.03;;;8.30;;
41343;SDS011;27089;50.022;7.604;2023-03-01T00:39:00;13.17;;;8.57;;
41343;SDS011;27089;50.022;7.604;2023-03-01T00:41:29;14.47;;;9.70;;
41343;SDS011;27089;50.022;7.604;2023-03-01T00:43:56;15.07;;;9.83;;
41343;SDS011;27089;50.022;7.604;2023-03-01T00:46:24;15.13;;;9.00;;
41343;SDS011;27089;50.022;7.604;2023-03-01T00:48:52;14.70;;;9.23;;
41343;SDS011;27089;50.022;7.604;2023-03-01T00:51:20;14.73;;;8.90;;
41343;SDS011;27089;50.022;7.604;2023-03-01T00:53:51;13.63;;;8.20;;
41343;SDS011;27089;50.022;7.604;2023-03-01T00:56:20;13.33;;;8.87;;
41343;SDS011;27089;50.022;7.604;2023-03-01T00:58:47;13.87;;;9.23;;
41343;SDS011;27089;50.022;7.604;2023-03-01T01:01:14;13.00;;;8.73;;
41343;SDS011;27089;50.022;7.604;2023-03-01T01:03:46;16.23;;;10.17;;
41343;SDS011;27089;50.022;7.604;2023-03-01T01:06:17;17.20;;;9.00;;
41343;SDS011;27089;50.022;7.604;2023-03-01T01:08:45;15.00;;;9.13;;
41343;SDS011;27089;50.022;7.604;2023-03-01T01:11:12;14.60;;;8.77;;
41343;SDS011;27089;50.022;7.604;2023-03-01T01:13:41;14.77;;;9.57;;
41343;SDS011;27089;50.022;7.604;2023-03-01T01:16:10;15.33;;;9.73;;
41343;SDS011;27089;50.022;7.604;2023-03-01T01:18:37;15.33;;;9.77;;
41343;SDS011;27089;50.022;7.604;2023-03-01T01:21:06;15.80;;;9.53;;
41343;SDS011;27089;50.022;7.604;2023-03-01T01:23:34;11.67;;;8.37;;
41343;SDS011;27089;50.022;7.604;2023-03-01T01:26:04;15.33;;;9.37;;
41343;SDS011;27089;50.022;7.604;2023-03-01T01:28:33;14.57;;;8.97;;
41343;SDS011;27089;50.022;7.604;2023-03-01T01:31:01;17.30;;;10.57;;
41343;SDS011;27089;50.022;7.604;2023-03-01T01:33:28;15.90;;;9.70;;
41343;SDS011;27089;50.022;7.604;2023-03-01T01:35:55;14.93;;;9.87;;
41343;SDS011;27089;50.022;7.604;2023-03-01T01:38:23;15.70;;;8.90;;
41343;SDS011;27089;50.022;7.604;2023-03-01T01:40:50;16.60;;;9.80;;
41343;SDS011;27089;50.022;7.604;2023-03-01T01:43:19;13.87;;;8.70;;
41343;SDS011;27089;50.022;7.604;2023-03-01T01:45:47;14.03;;;8.83;;
41343;SDS011;27089;50.022;7.604;2023-03-01T01:48:17;11.40;;;7.33;;
41343;SDS011;27089;50.022;7.604;2023-03-01T01:50:49;12.90;;;8.40;;
41343;SDS011;27089;50.022;7.604;2023-03-01T01:53:21;11.80;;;7.30;;
41343;SDS011;27089;50.022;7.604;2023-03-01T01:55:50;14.57;;;9.73;;
41343;SDS011;27089;50.022;7.604;2023-03-01T01:58:22;12.90;;;9.00;;
41343;SDS011;27089;50.022;7.604;2023-03-01T02:00:50;13.33;;;8.53;;
41343;SDS011;27089;50.022;7.604;2023-03-01T02:03:18;15.47;;;9.47;;
41343;SDS011;27089;50.022;7.604;2023-03-01T02:05:50;13.07;;;8.97;;
41343;SDS011;27089;50.022;7.604;2023-03-01T02:08:22;14.63;;;9.67;;
41343;SDS011;27089;50.022;7.604;2023-03-01T02:10:52;17.83;;;10.10;;
41343;SDS011;27089;50.022;7.604;2023-03-01T02:13:21;14.53;;;9.03;;
41343;SDS011;27089;50.022;7.604;2023-03-01T02:15:48;12.73;;;8.10;;
41343;SDS011;27089;50.022;7.604;2023-03-01T02:18:16;16.03;;;9.80;;
41343;SDS011;27089;50.022;7.604;2023-03-01T02:20:50;11.33;;;7.53;;
41343;SDS011;27089;50.022;7.604;2023-03-01T02:23:25;15.33;;;9.00;;
41343;SDS011;27089;50.022;7.604;2023-03-01T02:25:54;16.93;;;9.33;;
41343;SDS011;27089;50.022;7.604;2023-03-01T02:28:29;15.47;;;9.47;;
41343;SDS011;27089;50.022;7.604;2023-03-01T02:30:57;14.47;;;9.43;;
41343;SDS011;27089;50.022;7.604;2023-03-01T02:33:42;14.40;;;9.00;;
41343;SDS011;27089;50.022;7.604;2023-03-01T02:36:14;14.60;;;8.70;;
41343;SDS011;27089;50.022;7.604;2023-03-01T02:38:45;17.10;;;10.60;;
41343;SDS011;27089;50.022;7.604;2023-03-01T02:41:13;15.27;;;9.27;;
41343;SDS011;27089;50.022;7.604;2023-03-01T02:43:44;16.03;;;10.40;;
41343;SDS011;27089;50.022;7.604;2023-03-01T02:46:14;17.20;;;10.30;;
41343;SDS011;27089;50.022;7.604;2023-03-01T02:48:43;17.07;;;10.57;;
41343;SDS011;27089;50.022;7.604;2023-03-01T02:51:14;16.00;;;10.63;;
41343;SDS011;27089;50.022;7.604;2023-03-01T02:53:54;14.90;;;9.50;;
41343;SDS011;27089;50.022;7.604;2023-03-01T02:56:26;18.27;;;11.27;;
41343;SDS011;27089;50.022;7.604;2023-03-01T02:58:55;12.80;;;8.80;;
41343;SDS011;27089;50.022;7.604;2023-03-01T03:01:26;17.07;;;10.93;;
41343;SDS011;27089;50.022;7.604;2023-03-01T03:04:02;17.27;;;9.63;;
41343;SDS011;27089;50.022;7.604;2023-03-01T03:06:32;14.93;;;9.60;;
41343;SDS011;27089;50.022;7.604;2023-03-01T03:08:59;17.90;;;10.87;;
41343;SDS011;27089;50.022;7.604;2023-03-01T03:11:26;16.83;;;10.40;;
41343;SDS011;27089;50.022;7.604;2023-03-01T03:13:53;17.40;;;10.70;;
41343;SDS011;27089;50.022;7.604;2023-03-01T03:16:22;14.87;;;9.83;;
41343;SDS011;27089;50.022;7.604;2023-03-01T03:18:50;17.33;;;10.43;;
41343;SDS011;27089;50.022;7.604;2023-03-01T03:21:17;19.60;;;10.30;;
41343;SDS011;27089;50.022;7.604;2023-03-01T03:23:44;15.97;;;11.03;;
41343;SDS011;27089;50.022;7.604;2023-03-01T03:26:11;18.47;;;11.07;;
41343;SDS011;27089;50.022;7.604;2023-03-01T03:28:40;15.90;;;10.03;;
41343;SDS011;27089;50.022;7.604;2023-03-01T03:31:08;18.97;;;11.33;;
41343;SDS011;27089;50.022;7.604;2023-03-01T03:33:35;19.00;;;11.47;;
41343;SDS011;27089;50.022;7.604;2023-03-01T03:36:02;15.73;;;10.77;;
41343;SDS011;27089;50.022;7.604;2023-03-01T03:38:30;17.40;;;10.83;;
41343;SDS011;27089;50.022;7.604;2023-03-01T03:41:01;15.80;;;11.17;;
41343;SDS011;27089;50.022;7.604;2023-03-01T03:43:29;17.43;;;11.33;;
41343;SDS011;27089;50.022;7.604;2023-03-01T03:45:57;18.57;;;10.53;;
41343;SDS011;27089;50.022;7.604;2023-03-01T03:48:26;18.90;;;11.40;;
41343;SDS011;27089;50.022;7.604;2023-03-01T03:50:54;19.13;;;11.47;;
41343;SDS011;27089;50.022;7.604;2023-03-01T03:53:23;21.13;;;10.77;;
41343;SDS011;27089;50.022;7.604;2023-03-01T03:55:52;20.17;;;12.23;;
41343;SDS011;27089;50.022;7.604;2023-03-01T03:58:20;21.57;;;12.27;;
41343;SDS011;27089;50.022;7.604;2023-03-01T04:00:49;18.03;;;11.67;;
41343;SDS011;27089;50.022;7.604;2023-03-01T04:03:18;20.40;;;11.90;;
41343;SDS011;27089;50.022;7.604;2023-03-01T04:05:47;21.13;;;13.07;;
41343;SDS011;27089;50.022;7.604;2023-03-01T04:08:15;20.87;;;12.67;;
41343;SDS011;27089;50.022;7.604;2023-03-01T04:10:45;21.10;;;12.83;;
41343;SDS011;27089;50.022;7.604;2023-03-01T04:13:14;21.17;;;12.47;;
41343;SDS011;27089;50.022;7.604;2023-03-01T04:15:44;21.03;;;12.50;;
41343;SDS011;27089;50.022;7.604;2023-03-01T04:18:12;21.63;;;12.60;;
41343;SDS011;27089;50.022;7.604;2023-03-01T04:20:41;20.63;;;12.33;;
41343;SDS011;27089;50.022;7.604;2023-03-01T04:23:12;20.53;;;12.73;;
41343;SDS011;27089;50.022;7.604;2023-03-01T04:25:41;20.27;;;12.50;;
41343;SDS011;27089;50.022;7.604;2023-03-01T04:28:11;21.67;;;12.53;;
41343;SDS011;27089;50.022;7.604;2023-03-01T04:30:38;21.00;;;12.57;;
41343;SDS011;27089;50.022;7.604;2023-03-01T04:33:06;22.37;;;11.87;;
41343;SDS011;27089;50.022;7.604;2023-03-01T04:35:35;20.57;;;12.47;;
41343;SDS011;27089;50.022;7.604;2023-03-01T04:38:02;20.10;;;12.63;;
41343;SDS011;27089;50.022;7.604;2023-03-01T04:40:31;19.77;;;12.23;;
41343;SDS011;27089;50.022;7.604;2023-03-01T04:42:58;23.33;;;13.00;;
41343;SDS011;27089;50.022;7.604;2023-03-01T04:45:26;21.87;;;11.70;;
41343;SDS011;27089;50.022;7.604;2023-03-01T04:47:52;21.43;;;12.13;;
41343;SDS011;27089;50.022;7.604;2023-03-01T04:50:20;22.93;;;12.70;;
41343;SDS011;27089;50.022;7.604;2023-03-01T04:52:48;20.43;;;13.07;;
41343;SDS011;27089;50.022;7.604;2023-03-01T04:55:15;23.03;;;13.90;;
41343;SDS011;27089;50.022;7.604;2023-03-01T04:57:44;22.33;;;13.07;;
41343;SDS011;27089;50.022;7.604;2023-03-01T05:00:12;21.20;;;13.77;;
41343;SDS011;27089;50.022;7.604;2023-03-01T05:02:47;18.97;;;12.90;;
41343;SDS011;27089;50.022;7.604;2023-03-01T05:05:18;22.50;;;13.20;;
41343;SDS011;27089;50.022;7.604;2023-03-01T05:07:50;20.23;;;13.10;;
41343;SDS011;27089;50.022;7.604;2023-03-01T05:10:17;26.00;;;13.00;;
41343;SDS011;27089;50.022;7.604;2023-03-01T05:12:46;22.07;;;13.60;;
41343;SDS011;27089;50.022;7.604;2023-03-01T05:15:13;25.13;;;12.80;;
41343;SDS011;27089;50.022;7.604;2023-03-01T05:17:40;21.63;;;12.93;;
41343;SDS011;27089;50.022;7.604;2023-03-01T05:20:08;24.73;;;13.23;;
41343;SDS011;27089;50.022;7.604;2023-03-01T05:22:36;24.83;;;13.97;;
41343;SDS011;27089;50.022;7.604;2023-03-01T05:25:03;24.73;;;13.43;;
41343;SDS011;27089;50.022;7.604;2023-03-01T05:27:32;21.30;;;13.83;;
41343;SDS011;27089;50.022;7.604;2023-03-01T05:30:00;23.37;;;13.40;;
41343;SDS011;27089;50.022;7.604;2023-03-01T05:32:38;23.97;;;14.53;;
41343;SDS011;27089;50.022;7.604;2023-03-01T05:35:07;25.87;;;13.97;;
41343;SDS011;27089;50.022;7.604;2023-03-01T05:37:35;22.93;;;14.07;;
41343;SDS011;27089;50.022;7.604;2023-03-01T05:40:02;22.40;;;13.50;;
41343;SDS011;27089;50.022;7.604;2023-03-01T05:45:00;21.33;;;13.43;;
41343;SDS011;27089;50.022;7.604;2023-03-01T05:47:27;21.33;;;13.33;;
41343;SDS011;27089;50.022;7.604;2023-03-01T05:49:56;22.60;;;13.97;;
41343;SDS011;27089;50.022;7.604;2023-03-01T05:52:23;23.53;;;14.27;;
41343;SDS011;27089;50.022;7.604;2023-03-01T05:54:50;24.80;;;14.10;;
41343;SDS011;27089;50.022;7.604;2023-03-01T05:57:17;21.47;;;13.03;;
41343;SDS011;27089;50.022;7.604;2023-03-01T05:59:45;25.10;;;14.73;;
41343;SDS011;27089;50.022;7.604;2023-03-01T06:02:13;24.43;;;13.43;;
41343;SDS011;27089;50.022;7.604;2023-03-01T06:04:40;19.53;;;11.87;;
41343;SDS011;27089;50.022;7.604;2023-03-01T06:07:07;24.30;;;13.83;;
41343;SDS011;27089;50.022;7.604;2023-03-01T06:09:34;21.30;;;12.43;;
41343;SDS011;27089;50.022;7.604;2023-03-01T06:12:01;26.40;;;14.33;;
41343;SDS011;27089;50.022;7.604;2023-03-01T06:14:28;27.10;;;14.27;;
41343;SDS011;27089;50.022;7.604;2023-03-01T06:16:55;25.23;;;14.70;;
41343;SDS011;27089;50.022;7.604;2023-03-01T06:19:23;30.03;;;16.77;;
41343;SDS011;27089;50.022;7.604;2023-03-01T06:21:50;22.73;;;12.87;;
41343;SDS011;27089;50.022;7.604;2023-03-01T06:24:17;27.03;;;14.87;;
41343;SDS011;27089;50.022;7.604;2023-03-01T06:26:45;25.83;;;15.00;;
41343;SDS011;27089;50.022;7.604;2023-03-01T06:29:11;26.43;;;14.63;;
41343;SDS011;27089;50.022;7.604;2023-03-01T06:31:39;24.73;;;14.63;;
41343;SDS011;27089;50.022;7.604;2023-03-01T06:34:06;24.67;;;14.93;;
41343;SDS011;27089;50.022;7.604;2023-03-01T06:36:34;26.13;;;14.87;;
41343;SDS011;27089;50.022;7.604;2023-03-01T06:39:01;24.20;;;14.40;;
41343;SDS011;27089;50.022;7.604;2023-03-01T06:41:30;25.37;;;13.00;;
41343;SDS011;27089;50.022;7.604;2023-03-01T06:43:57;23.17;;;13.17;;
41343;SDS011;27089;50.022;7.604;2023-03-01T06:46:25;21.67;;;12.33;;
41343;SDS011;27089;50.022;7.604;2023-03-01T06:48:52;23.53;;;13.60;;
41343;SDS011;27089;50.022;7.604;2023-03-01T06:51:18;19.27;;;12.77;;
41343;SDS011;27089;50.022;7.604;2023-03-01T06:53:47;25.07;;;13.90;;
41343;SDS011;27089;50.022;7.604;2023-03-01T06:56:14;25.93;;;14.17;;
41343;SDS011;27089;50.022;7.604;2023-03-01T06:58:41;21.77;;;13.23;;
41343;SDS011;27089;50.022;7.604;2023-03-01T07:01:08;26.97;;;15.03;;
41343;SDS011;27089;50.022;7.604;2023-03-01T07:03:35;23.53;;;13.80;;
41343;SDS011;27089;50.022;7.604;2023-03-01T07:06:02;18.73;;;11.67;;
41343;SDS011;27089;50.022;7.604;2023-03-01T07:08:29;26.73;;;14.83;;
41343;SDS011;27089;50.022;7.604;2023-03-01T07:10:58;25.17;;;14.73;;
41343;SDS011;27089;50.022;7.604;2023-03-01T07:13:27;23.00;;;13.57;;
41343;SDS011;27089;50.022;7.604;2023-03-01T07:15:54;28.50;;;14.67;;
41343;SDS011;27089;50.022;7.604;2023-03-01T07:18:21;24.20;;;13.80;;
41343;SDS011;27089;50.022;7.604;2023-03-01T07:20:48;22.87;;;13.90;;
41343;SDS011;27089;50.022;7.604;2023-03-01T07:23:15;23.27;;;14.13;;
41343;SDS011;27089;50.022;7.604;2023-03-01T07:25:42;27.63;;;14.40;;
41343;SDS011;27089;50.022;7.604;2023-03-01T07:28:11;23.90;;;14.37;;
41343;SDS011;27089;50.022;7.604;2023-03-01T07:30:38;26.80;;;14.60;;
41343;SDS011;27089;50.022;7.604;2023-03-01T07:33:05;24.47;;;13.83;;
41343;SDS011;27089;50.022;7.604;2023-03-01T07:35:32;23.23;;;13.47;;
41343;SDS011;27089;50.022;7.604;2023-03-01T07:37:59;20.90;;;13.23;;
41343;SDS011;27089;50.022;7.604;2023-03-01T07:40:26;23.60;;;13.47;;
41343;SDS011;27089;50.022;7.604;2023-03-01T07:42:55;20.07;;;12.50;;
41343;SDS011;27089;50.022;7.604;2023-03-01T07:45:24;23.57;;;13.07;;
41343;SDS011;27089;50.022;7.604;2023-03-01T07:47:51;22.97;;;12.80;;
41343;SDS011;27089;50.022;7.604;2023-03-01T07:50:19;17.53;;;10.37;;
41343;SDS011;27089;50.022;7.604;2023-03-01T07:52:46;18.27;;;11.13;;
41343;SDS011;27089;50.022;7.604;2023-03-01T07:55:14;20.13;;;12.40;;
41343;SDS011;27089;50.022;7.604;2023-03-01T07:57:42;21.67;;;12.90;;
41343;SDS011;27089;50.022;7.604;2023-03-01T08:00:10;19.00;;;13.47;;
41343;SDS011;27089;50.022;7.604;2023-03-01T08:02:39;21.53;;;12.23;;
41343;SDS011;27089;50.022;7.604;2023-03-01T08:05:07;18.17;;;12.17;;
41343;SDS011;27089;50.022;7.604;2023-03-01T08:07:35;20.03;;;13.17;;
41343;SDS011;27089;50.022;7.604;2023-03-01T08:10:01;20.83;;;13.10;;
41343;SDS011;27089;50.022;7.604;2023-03-01T08:12:29;19.77;;;13.07;;
41343;SDS011;27089;50.022;7.604;2023-03-01T08:14:56;18.97;;;11.70;;
41343;SDS011;27089;50.022;7.604;2023-03-01T08:17:23;21.03;;;11.40;;
41343;SDS011;27089;50.022;7.604;2023-03-01T08:19:51;19.03;;;12.57;;
41343;SDS011;27089;50.022;7.604;2023-03-01T08:22:18;23.43;;;13.13;;
41343;SDS011;27089;50.022;7.604;2023-03-01T08:24:46;20.53;;;12.13;;
41343;SDS011;27089;50.022;7.604;2023-03-01T08:27:14;23.20;;;13.10;;
41343;SDS011;27089;50.022;7.604;2023-03-01T08:29:41;20.03;;;10.93;;
41343;SDS011;27089;50.022;7.604;2023-03-01T08:32:08;18.80;;;12.30;;
41343;SDS011;27089;50.022;7.604;2023-03-01T08:34:35;19.47;;;12.10;;
41343;SDS011;27089;50.022;7.604;2023-03-01T08:37:03;19.63;;;12.70;;
41343;SDS011;27089;50.022;7.604;2023-03-01T08:39:30;22.57;;;12.80;;
41343;SDS011;27089;50.022;7.604;2023-03-01T08:41:58;22.37;;;14.17;;
41343;SDS011;27089;50.022;7.604;2023-03-01T08:44:24;17.67;;;10.17;;
41343;SDS011;27089;50.022;7.604;2023-03-01T08:46:51;22.30;;;12.17;;
41343;SDS011;27089;50.022;7.604;2023-03-01T08:49:20;22.47;;;12.37;;
41343;SDS011;27089;50.022;7.604;2023-03-01T08:51:48;19.93;;;12.30;;
41343;SDS011;27089;50.022;7.604;2023-03-01T08:54:18;17.80;;;10.83;;
41343;SDS011;27089;50.022;7.604;2023-03-01T08:56:46;19.60;;;11.53;;
41343;SDS011;27089;50.022;7.604;2023-03-01T08:59:13;19.53;;;11.60;;
41343;SDS011;27089;50.022;7.604;2023-03-01T09:01:42;18.57;;;12.53;;
41343;SDS011;27089;50.022;7.604;2023-03-01T09:04:09;19.73;;;12.47;;
41343;SDS011;27089;50.022;7.604;2023-03-01T09:06:36;15.80;;;9.63;;
41343;SDS011;27089;50.022;7.604;2023-03-01T09:09:04;17.73;;;11.77;;
41343;SDS011;27089;50.022;7.604;2023-03-01T09:11:34;18.23;;;12.10;;
41343;SDS011;27089;50.022;7.604;2023-03-01T09:14:04;14.87;;;9.17;;
41343;SDS011;27089;50.022;7.604;2023-03-01T09:16:32;18.47;;;11.87;;
41343;SDS011;27089;50.022;7.604;2023-03-01T09:19:01;16.73;;;11.50;;
41343;SDS011;27089;50.022;7.604;2023-03-01T09:21:28;16.87;;;11.53;;
41343;SDS011;27089;50.022;7.604;2023-03-01T09:23:55;17.77;;;11.97;;
41343;SDS011;27089;50.022;7.604;2023-03-01T09:26:23;15.67;;;11.17;;
41343;SDS011;27089;50.022;7.604;2023-03-01T09:28:52;15.23;;;11.03;;
41343;SDS011;27089;50.022;7.604;2023-03-01T09:31:21;17.27;;;10.67;;
41343;SDS011;27089;50.022;7.604;2023-03-01T09:33:50;15.00;;;10.33;;
41343;SDS011;27089;50.022;7.604;2023-03-01T09:36:20;17.43;;;10.97;;
41343;SDS011;27089;50.022;7.604;2023-03-01T09:38:48;16.47;;;11.27;;
41343;SDS011;27089;50.022;7.604;2023-03-01T09:41:24;16.77;;;11.70;;
41343;SDS011;27089;50.022;7.604;2023-03-01T09:44:05;15.00;;;10.73;;
41343;SDS011;27089;50.022;7.604;2023-03-01T09:46:42;17.20;;;11.70;;
41343;SDS011;27089;50.022;7.604;2023-03-01T09:49:12;17.80;;;11.57;;
41343;SDS011;27089;50.022;7.604;2023-03-01T09:51:43;14.60;;;10.67;;
41343;SDS011;27089;50.022;7.604;2023-03-01T09:54:20;16.20;;;10.87;;
41343;SDS011;27089;50.022;7.604;2023-03-01T09:56:52;15.13;;;10.33;;
41343;SDS011;27089;50.022;7.604;2023-03-01T09:59:28;16.50;;;11.80;;
41343;SDS011;27089;50.022;7.604;2023-03-01T10:02:04;17.40;;;10.80;;
41343;SDS011;27089;50.022;7.604;2023-03-01T10:04:48;15.40;;;11.07;;
41343;SDS011;27089;50.022;7.604;2023-03-01T10:07:19;16.30;;;10.77;;
41343;SDS011;27089;50.022;7.604;2023-03-01T10:09:53;15.37;;;10.97;;
41343;SDS011;27089;50.022;7.604;2023-03-01T10:12:22;18.23;;;11.33;;
41343;SDS011;27089;50.022;7.604;2023-03-01T10:14:55;18.23;;;12.03;;
41343;SDS011;27089;50.022;7.604;2023-03-01T10:17:30;16.23;;;11.70;;
41343;SDS011;27089;50.022;7.604;2023-03-01T10:20:10;15.73;;;11.00;;
41343;SDS011;27089;50.022;7.604;2023-03-01T10:22:44;16.60;;;11.40;;
41343;SDS011;27089;50.022;7.604;2023-03-01T10:25:15;18.13;;;11.27;;
41343;SDS011;27089;50.022;7.604;2023-03-01T10:28:00;17.10;;;11.97;;
41343;SDS011;27089;50.022;7.604;2023-03-01T10:30:34;16.83;;;11.23;;
41343;SDS011;27089;50.022;7.604;2023-03-01T10:33:05;16.53;;;11.67;;
41343;SDS011;27089;50.022;7.604;2023-03-01T10:35:43;18.37;;;12.27;;
41343;SDS011;27089;50.022;7.604;2023-03-01T10:38:10;19.20;;;11.13;;
41343;SDS011;27089;50.022;7.604;2023-03-01T10:40:49;16.40;;;11.83;;
41343;SDS011;27089;50.022;7.604;2023-03-01T10:43:19;17.73;;;11.23;;
41343;SDS011;27089;50.022;7.604;2023-03-01T10:45:48;17.20;;;11.47;;
41343;SDS011;27089;50.022;7.604;2023-03-01T10:48:16;17.53;;;11.73;;
41343;SDS011;27089;50.022;7.604;2023-03-01T10:50:47;15.40;;;11.70;;
41343;SDS011;27089;50.022;7.604;2023-03-01T10:53:22;16.40;;;12.30;;
41343;SDS011;27089;50.022;7.604;2023-03-01T10:55:57;19.37;;;12.50;;
41343;SDS011;27089;50.022;7.604;2023-03-01T10:58:26;18.93;;;12.90;;
41343;SDS011;27089;50.022;7.604;2023-03-01T11:00:56;19.20;;;13.10;;
41343;SDS011;27089;50.022;7.604;2023-03-01T11:03:26;19.77;;;12.47;;
41343;SDS011;27089;50.022;7.604;2023-03-01T11:05:56;19.00;;;12.77;;
41343;SDS011;27089;50.022;7.604;2023-03-01T11:08:38;19.80;;;13.40;;
41343;SDS011;27089;50.022;7.604;2023-03-01T11:11:13;18.80;;;13.03;;
41343;SDS011;27089;50.022;7.604;2023-03-01T11:13:52;17.50;;;11.50;;
41343;SDS011;27089;50.022;7.604;2023-03-01T11:16:29;22.90;;;14.60;;
41343;SDS011;27089;50.022;7.604;2023-03-01T11:19:00;22.30;;;14.13;;
41343;SDS011;27089;50.022;7.604;2023-03-01T11:21:40;21.63;;;12.53;;
41343;SDS011;27089;50.022;7.604;2023-03-01T11:24:13;17.90;;;11.97;;
41343;SDS011;27089;50.022;7.604;2023-03-01T11:26:42;21.10;;;14.77;;
41343;SDS011;27089;50.022;7.604;2023-03-01T11:29:15;18.83;;;11.97;;
41343;SDS011;27089;50.022;7.604;2023-03-01T11:31:53;25.30;;;15.63;;
41343;SDS011;27089;50.022;7.604;2023-03-01T11:34:23;23.60;;;17.13;;
41343;SDS011;27089;50.022;7.604;2023-03-01T11:36:58;18.13;;;12.33;;
41343;SDS011;27089;50.022;7.604;2023-03-01T11:39:29;19.97;;;13.87;;
41343;SDS011;27089;50.022;7.604;2023-03-01T11:42:04;18.13;;;13.80;;
41343;SDS011;27089;50.022;7.604;2023-03-01T11:44:44;18.13;;;13.43;;
41343;SDS011;27089;50.022;7.604;2023-03-01T11:47:18;23.07;;;14.33;;
41343;SDS011;27089;50.022;7.604;2023-03-01T11:50:06;22.20;;;13.40;;
41343;SDS011;27089;50.022;7.604;2023-03-01T11:52:43;17.73;;;11.97;;
41343;SDS011;27089;50.022;7.604;2023-03-01T11:55:30;25.47;;;15.77;;
41343;SDS011;27089;50.022;7.604;2023-03-01T11:58:22;20.63;;;13.47;;
41343;SDS011;27089;50.022;7.604;2023-03-01T12:01:00;22.03;;;14.17;;
41343;SDS011;27089;50.022;7.604;2023-03-01T12:03:55;19.13;;;13.03;;
41343;SDS011;27089;50.022;7.604;2023-03-01T12:06:42;19.70;;;13.27;;
41343;SDS011;27089;50.022;7.604;2023-03-01T12:09:22;19.27;;;12.80;;
41343;SDS011;27089;50.022;7.604;2023-03-01T12:12:08;18.90;;;12.77;;
41343;SDS011;27089;50.022;7.604;2023-03-01T12:15:17;18.70;;;13.30;;
41343;SDS011;27089;50.022;7.604;2023-03-01T12:18:12;17.57;;;12.07;;
41343;SDS011;27089;50.022;7.604;2023-03-01T12:20:50;20.57;;;12.50;;
41343;SDS011;27089;50.022;7.604;2023-03-01T12:23:38;20.50;;;12.83;;
41343;SDS011;27089;50.022;7.604;2023-03-01T12:26:30;19.57;;;12.23;;
41343;SDS011;27089;50.022;7.604;2023-03-01T12:29:06;19.07;;;11.43;;
41343;SDS011;27089;50.022;7.604;2023-03-01T12:37:36;15.87;;;12.30;;
41343;SDS011;27089;50.022;7.604;2023-03-01T12:40:19;17.77;;;12.47;;
41343;SDS011;27089;50.022;7.604;2023-03-01T12:42:58;18.07;;;12.47;;
41343;SDS011;27089;50.022;7.604;2023-03-01T12:45:44;20.17;;;11.97;;
41343;SDS011;27089;50.022;7.604;2023-03-01T12:48:24;22.43;;;12.53;;
41343;SDS011;27089;50.022;7.604;2023-03-01T12:50:59;18.13;;;12.23;;
41343;SDS011;27089;50.022;7.604;2023-03-01T12:53:31;20.83;;;13.47;;
41343;SDS011;27089;50.022;7.604;2023-03-01T12:56:02;17.07;;;11.60;;
41343;SDS011;27089;50.022;7.604;2023-03-01T12:58:32;17.50;;;12.00;;
41343;SDS011;27089;50.022;7.604;2023-03-01T13:01:11;18.17;;;12.03;;
41343;SDS011;27089;50.022;7.604;2023-03-01T13:03:53;19.90;;;11.33;;
41343;SDS011;27089;50.022;7.604;2023-03-01T13:06:41;13.83;;;9.57;;
41343;SDS011;27089;50.022;7.604;2023-03-01T13:09:17;19.33;;;12.53;;
41343;SDS011;27089;50.022;7.604;2023-03-01T13:11:51;18.20;;;11.90;;
41343;SDS011;27089;50.022;7.604;2023-03-01T13:14:36;16.30;;;11.73;;
41343;SDS011;27089;50.022;7.604;2023-03-01T13:17:30;17.23;;;11.67;;
41343;SDS011;27089;50.022;7.604;2023-03-01T13:19:59;14.63;;;10.10;;
41343;SDS011;27089;50.022;7.604;2023-03-01T13:22:29;16.13;;;11.10;;
41343;SDS011;27089;50.022;7.604;2023-03-01T13:25:11;16.47;;;11.27;;
41343;SDS011;27089;50.022;7.604;2023-03-01T13:27:41;18.03;;;12.03;;
41343;SDS011;27089;50.022;7.604;2023-03-01T13:36:09;16.73;;;10.60;;
41343;SDS011;27089;50.022;7.604;2023-03-01T13:38:45;14.70;;;10.50;;
41343;SDS011;27089;50.022;7.604;2023-03-01T13:41:15;15.40;;;9.73;;
41343;SDS011;27089;50.022;7.604;2023-03-01T13:43:43;15.83;;;9.97;;
41343;SDS011;27089;50.022;7.604;2023-03-01T13:46:15;16.07;;;10.60;;
41343;SDS011;27089;50.022;7.604;2023-03-01T13:48:44;14.07;;;9.70;;
41343;SDS011;27089;50.022;7.604;2023-03-01T13:51:15;16.43;;;9.90;;
41343;SDS011;27089;50.022;7.604;2023-03-01T13:53:42;14.70;;;10.23;;
41343;SDS011;27089;50.022;7.604;2023-03-01T13:56:12;18.30;;;10.97;;
41343;SDS011;27089;50.022;7.604;2023-03-01T13:58:46;14.33;;;9.47;;
41343;SDS011;27089;50.022;7.604;2023-03-01T14:01:23;14.10;;;9.43;;
41343;SDS011;27089;50.022;7.604;2023-03-01T14:03:53;15.87;;;9.63;;
41343;SDS011;27089;50.022;7.604;2023-03-01T14:06:22;16.37;;;9.53;;
41343;SDS011;27089;50.022;7.604;2023-03-01T14:08:51;14.40;;;9.03;;
41343;SDS011;27089;50.022;7.604;2023-03-01T14:11:54;13.40;;;9.77;;
41343;SDS011;27089;50.022;7.604;2023-03-01T14:14:42;12.10;;;8.73;;
41343;SDS011;27089;50.022;7.604;2023-03-01T14:17:18;13.27;;;8.63;;
41343;SDS011;27089;50.022;7.604;2023-03-01T14:20:08;11.57;;;8.47;;
41343;SDS011;27089;50.022;7.604;2023-03-01T14:22:40;15.60;;;10.03;;
41343;SDS011;27089;50.022;7.604;2023-03-01T14:25:16;10.77;;;8.00;;
41343;SDS011;27089;50.022;7.604;2023-03-01T14:27:57;13.70;;;8.10;;
41343;SDS011;27089;50.022;7.604;2023-03-01T14:30:31;13.43;;;7.93;;
41343;SDS011;27089;50.022;7.604;2023-03-01T14:33:04;10.30;;;7.37;;
41343;SDS011;27089;50.022;7.604;2023-03-01T14:35:33;13.00;;;9.23;;
41343;SDS011;27089;50.022;7.604;2023-03-01T14:38:02;12.10;;;8.83;;
41343;SDS011;27089;50.022;7.604;2023-03-01T14:40:29;10.27;;;6.97;;
41343;SDS011;27089;50.022;7.604;2023-03-01T14:43:01;13.50;;;7.43;;
41343;SDS011;27089;50.022;7.604;2023-03-01T14:45:35;10.77;;;7.77;;
41343;SDS011;27089;50.022;7.604;2023-03-01T14:48:03;17.50;;;10.60;;
41343;SDS011;27089;50.022;7.604;2023-03-01T14:50:32;36.00;;;15.57;;
41343;SDS011;27089;50.022;7.604;2023-03-01T14:53:01;23.10;;;12.27;;
41343;SDS011;27089;50.022;7.604;2023-03-01T14:55:30;14.10;;;9.13;;
41343;SDS011;27089;50.022;7.604;2023-03-01T14:58:03;13.93;;;8.37;;
41343;SDS011;27089;50.022;7.604;2023-03-01T15:00:31;12.70;;;8.63;;
41343;SDS011;27089;50.022;7.604;2023-03-01T15:03:00;12.70;;;8.03;;